createdAt,value
2023-06-12T00:01:27.728Z,100468.38
2023-06-12T00:03:58.920Z,100472.13
2023-06-12T00:06:25.930Z,100469.13
2023-06-12T00:08:53.022Z,100464.06
2023-06-12T00:11:20.013Z,100469.13
2023-06-12T00:13:48.484Z,100463.50
2023-06-12T00:16:18.160Z,100466.22
2023-06-12T00:18:48.273Z,100450.94
2023-06-12T00:21:17.000Z,100474.44
2023-06-12T00:23:45.380Z,100466.19
2023-06-12T00:26:12.314Z,100472.81
2023-06-12T00:28:39.422Z,100474.97
2023-06-12T00:31:06.104Z,100465.22
2023-06-12T00:33:32.948Z,100468.56
2023-06-12T00:36:07.759Z,100476.78
2023-06-12T00:38:42.085Z,100475.69
2023-06-12T00:41:10.612Z,100448.31
2023-06-12T00:43:37.855Z,100479.88
2023-06-12T00:46:05.326Z,100480.06
2023-06-12T00:48:33.829Z,100473.06
2023-06-12T00:51:02.637Z,100435.28
2023-06-12T00:53:31.242Z,100446.09
2023-06-12T00:55:59.491Z,100468.81
2023-06-12T00:58:28.320Z,100474.41
2023-06-12T01:00:57.890Z,100467.25
2023-06-12T01:03:26.463Z,100469.97
2023-06-12T01:05:53.967Z,100472.41
2023-06-12T01:08:43.097Z,100476.59
2023-06-12T01:11:12.906Z,100464.94
2023-06-12T01:13:40.051Z,100468.47
2023-06-12T01:16:08.300Z,100464.25
2023-06-12T01:18:35.299Z,100465.13
2023-06-12T01:21:06.660Z,100456.78
2023-06-12T01:24:09.869Z,100463.25
2023-06-12T01:26:46.762Z,100467.75
2023-06-12T01:29:47.676Z,100459.56
2023-06-12T01:32:18.196Z,100467.84
2023-06-12T01:34:53.048Z,100466.06
2023-06-12T01:37:44.298Z,100460.25
2023-06-12T01:40:14.209Z,100462.19
2023-06-12T01:42:44.021Z,100459.59
2023-06-12T01:45:11.217Z,100457.06
2023-06-12T01:47:38.187Z,100464.81
2023-06-12T01:50:06.119Z,100465.47
2023-06-12T01:52:34.086Z,100462.03
2023-06-12T01:55:02.114Z,100471.31
2023-06-12T01:57:31.488Z,100459.88
2023-06-12T01:59:58.557Z,100466.41
2023-06-12T02:02:26.439Z,100476.72
2023-06-12T02:04:54.572Z,100468.53
2023-06-12T02:07:21.363Z,100476.25
2023-06-12T02:09:48.346Z,100472.47
2023-06-12T02:12:15.381Z,100477.09
2023-06-12T02:14:43.187Z,100474.41
2023-06-12T02:17:14.815Z,100472.78
2023-06-12T02:19:41.476Z,100469.19
2023-06-12T02:22:08.512Z,100484.75
2023-06-12T02:24:37.801Z,100486.28
2023-06-12T02:27:05.001Z,100479.28
2023-06-12T02:29:32.103Z,100485.03
2023-06-12T02:31:59.133Z,100487.81
2023-06-12T02:34:25.976Z,100485.59
2023-06-12T02:36:52.786Z,100469.78
2023-06-12T02:39:19.633Z,100486.69
2023-06-12T02:41:48.703Z,100491.78
2023-06-12T02:44:16.927Z,100492.69
2023-06-12T02:47:03.954Z,100489.22
2023-06-12T02:49:31.348Z,100495.88
2023-06-12T02:51:59.658Z,100488.03
2023-06-12T02:54:27.678Z,100485.91
2023-06-12T02:56:57.287Z,100491.41
2023-06-12T02:59:25.113Z,100501.13
2023-06-12T03:01:52.385Z,100490.66
2023-06-12T03:04:20.984Z,100497.44
2023-06-12T03:06:53.923Z,100489.16
2023-06-12T03:09:23.007Z,100491.50
2023-06-12T03:11:53.048Z,100496.81
2023-06-12T03:14:26.087Z,100496.56
2023-06-12T03:16:54.765Z,100498.38
2023-06-12T03:19:22.370Z,100499.75
2023-06-12T03:21:51.820Z,100481.91
2023-06-12T03:24:19.593Z,100504.97
2023-06-12T03:26:46.293Z,100498.75
2023-06-12T03:29:15.722Z,100497.09
2023-06-12T03:31:43.185Z,100506.16
2023-06-12T03:34:16.390Z,100508.22
2023-06-12T03:36:54.657Z,100514.16
2023-06-12T03:39:24.343Z,100518.00
2023-06-12T03:41:59.209Z,100518.97
2023-06-12T03:44:27.746Z,100520.09
2023-06-12T03:46:54.970Z,100523.66
2023-06-12T03:49:22.231Z,100514.47
2023-06-12T03:51:49.451Z,100529.44
2023-06-12T03:54:16.114Z,100503.41
2023-06-12T03:56:43.413Z,100531.50
2023-06-12T03:59:12.325Z,100520.00
2023-06-12T04:01:40.129Z,100537.19
2023-06-12T04:04:07.121Z,100534.66
2023-06-12T04:06:34.331Z,100532.72
2023-06-12T04:09:02.423Z,100527.88
2023-06-12T04:11:30.298Z,100535.53
2023-06-12T04:13:58.059Z,100538.88
2023-06-12T04:16:25.715Z,100534.75
2023-06-12T04:18:54.687Z,100545.94
2023-06-12T04:21:22.711Z,100519.13
2023-06-12T04:23:53.575Z,100543.25
2023-06-12T04:26:22.566Z,100552.81
2023-06-12T04:28:54.429Z,100475.53
2023-06-12T04:31:33.126Z,100494.22
2023-06-12T04:34:08.848Z,100492.28
2023-06-12T04:36:58.521Z,100534.78
2023-06-12T04:39:26.418Z,100547.31
2023-06-12T04:41:54.610Z,100555.25
2023-06-12T04:44:24.708Z,100546.28
2023-06-12T04:46:53.930Z,100547.16
2023-06-12T04:49:21.794Z,100551.09
2023-06-12T04:51:49.966Z,100554.56
2023-06-12T04:54:20.656Z,100523.31
2023-06-12T04:56:49.279Z,100558.28
2023-06-12T04:59:17.809Z,100540.50
2023-06-12T05:01:47.444Z,100553.88
2023-06-12T05:04:17.528Z,100556.31
2023-06-12T05:06:44.249Z,100528.44
2023-06-12T05:09:11.165Z,100566.72
2023-06-12T05:11:38.444Z,100563.25
2023-06-12T05:14:05.071Z,100561.44
2023-06-12T05:16:33.717Z,100557.00
2023-06-12T05:19:00.811Z,100562.13
2023-06-12T05:21:27.658Z,100565.69
2023-06-12T05:23:54.306Z,100570.88
2023-06-12T05:26:22.515Z,100565.75
2023-06-12T05:28:49.697Z,100571.38
2023-06-12T05:31:17.682Z,100568.34
2023-06-12T05:33:48.213Z,100565.41
2023-06-12T05:36:17.307Z,100570.31
2023-06-12T05:38:53.498Z,100572.94
2023-06-12T05:41:20.101Z,100577.28
2023-06-12T05:43:47.336Z,100576.03
2023-06-12T05:46:14.755Z,100566.47
2023-06-12T05:48:41.770Z,100568.69
2023-06-12T05:51:09.518Z,100574.56
2023-06-12T05:53:36.441Z,100560.38
2023-06-12T05:56:04.274Z,100565.03
2023-06-12T05:58:32.601Z,100564.81
2023-06-12T06:01:02.921Z,100564.91
2023-06-12T06:03:34.119Z,100577.63
2023-06-12T06:06:00.956Z,100580.31
2023-06-12T06:08:27.941Z,100567.16
2023-06-12T06:10:55.282Z,100580.19
2023-06-12T06:13:22.255Z,100585.84
2023-06-12T06:15:50.334Z,100584.72
2023-06-12T06:18:17.417Z,100582.53
2023-06-12T06:20:44.297Z,100591.88
2023-06-12T06:23:11.079Z,100585.28
2023-06-12T06:25:39.774Z,100590.13
2023-06-12T06:28:07.021Z,100590.41
2023-06-12T06:30:34.110Z,100597.13
2023-06-12T06:33:02.074Z,100596.50
2023-06-12T06:35:30.083Z,100591.41
2023-06-12T06:37:57.335Z,100612.38
2023-06-12T06:40:24.511Z,100607.38
2023-06-12T06:42:51.114Z,100607.34
2023-06-12T06:45:17.795Z,100599.34
2023-06-12T06:47:44.744Z,100605.38
2023-06-12T06:50:12.013Z,100603.34
2023-06-12T06:52:39.011Z,100607.13
2023-06-12T06:55:06.748Z,100613.09
2023-06-12T06:57:34.913Z,100600.53
2023-06-12T07:00:06.788Z,100602.94
2023-06-12T07:02:33.557Z,100605.25
2023-06-12T07:05:04.293Z,100593.06
2023-06-12T07:07:31.630Z,100602.72
2023-06-12T07:09:58.383Z,100607.41
2023-06-12T07:12:25.085Z,100598.25
2023-06-12T07:14:52.199Z,100609.50
2023-06-12T07:17:19.255Z,100591.97
2023-06-12T07:19:47.488Z,100597.31
2023-06-12T07:22:14.228Z,100600.50
2023-06-12T07:24:40.902Z,100591.06
2023-06-12T07:27:07.781Z,100598.38
2023-06-12T07:29:34.500Z,100599.47
2023-06-12T07:32:01.409Z,100601.91
2023-06-12T07:34:28.060Z,100595.63
2023-06-12T07:36:54.850Z,100601.50
2023-06-12T07:39:22.112Z,100594.25
2023-06-12T07:41:48.892Z,100594.44
2023-06-12T07:44:19.339Z,100596.97
2023-06-12T07:46:46.561Z,100600.94
2023-06-12T07:49:14.861Z,100592.53
2023-06-12T07:51:41.526Z,100599.66
2023-06-12T07:54:08.357Z,100584.34
2023-06-12T07:56:36.534Z,100589.72
2023-06-12T07:59:10.659Z,100569.78
2023-06-12T08:01:38.214Z,100584.03
2023-06-12T08:04:10.267Z,100581.91
2023-06-12T08:06:39.148Z,100569.88
2023-06-12T08:09:06.881Z,100575.22
2023-06-12T08:11:33.785Z,100573.81
2023-06-12T08:14:00.587Z,100565.72
2023-06-12T08:16:27.363Z,100572.91
2023-06-12T08:18:59.396Z,100571.59
2023-06-12T08:21:26.992Z,100576.53
2023-06-12T08:23:55.059Z,100559.78
2023-06-12T08:26:22.457Z,100567.66
2023-06-12T08:28:53.579Z,100559.25
2023-06-12T08:31:20.556Z,100566.84
2023-06-12T08:33:47.318Z,100558.41
2023-06-12T08:36:14.023Z,100558.91
2023-06-12T08:38:41.740Z,100551.72
2023-06-12T08:41:08.490Z,100560.72
2023-06-12T08:43:35.545Z,100551.81
2023-06-12T08:46:10.253Z,100549.09
2023-06-12T08:48:37.531Z,100555.03
2023-06-12T08:51:05.781Z,100550.28
2023-06-12T08:53:34.784Z,100550.31
2023-06-12T08:56:02.013Z,100539.31
2023-06-12T08:58:28.905Z,100539.78
2023-06-12T09:00:57.456Z,100522.59
2023-06-12T09:03:24.455Z,100535.47
2023-06-12T09:05:54.448Z,100534.63
2023-06-12T09:08:21.700Z,100534.63
2023-06-12T09:10:48.816Z,100518.75
2023-06-12T09:13:18.223Z,100532.81
2023-06-12T09:15:52.355Z,100521.28
2023-06-12T09:18:21.166Z,100525.22
2023-06-12T09:20:50.472Z,100527.63
2023-06-12T09:23:17.932Z,100497.03
2023-06-12T09:26:12.875Z,100519.09
2023-06-12T09:28:39.105Z,100523.34
2023-06-12T09:31:07.322Z,100527.97
2023-06-12T09:33:39.763Z,100519.34
2023-06-12T09:36:07.115Z,100517.56
2023-06-12T09:38:35.915Z,100513.28
2023-06-12T09:41:08.734Z,100490.13
2023-06-12T09:43:37.145Z,100513.16
2023-06-12T09:46:06.892Z,100506.50
2023-06-12T09:48:39.593Z,100517.97
2023-06-12T09:51:11.536Z,100518.06
2023-06-12T09:53:40.979Z,100505.41
2023-06-12T09:56:11.074Z,100512.59
2023-06-12T09:58:39.548Z,100519.59
2023-06-12T10:01:13.831Z,100510.78
2023-06-12T10:03:45.894Z,100503.91
2023-06-12T10:06:16.358Z,100504.47
2023-06-12T10:08:44.836Z,100518.88
2023-06-12T10:11:14.732Z,100502.56
2023-06-12T10:13:41.818Z,100500.91
2023-06-12T10:16:09.983Z,100495.16
2023-06-12T10:18:41.643Z,100504.53
2023-06-12T10:21:09.175Z,100495.97
2023-06-12T10:23:38.451Z,100499.97
2023-06-12T10:26:08.225Z,100505.19
2023-06-12T10:28:37.648Z,100494.97
2023-06-12T10:31:14.899Z,100498.78
2023-06-12T10:34:06.686Z,100487.06
2023-06-12T10:36:46.746Z,100499.09
2023-06-12T10:39:25.590Z,100487.41
2023-06-12T10:42:01.530Z,100487.94
2023-06-12T10:44:53.548Z,100489.69
2023-06-12T10:47:23.490Z,100488.97
2023-06-12T10:50:00.271Z,100488.53
2023-06-12T10:52:29.277Z,100478.91
2023-06-12T10:55:22.236Z,100474.19
2023-06-12T10:57:54.235Z,100466.91
2023-06-12T11:00:23.413Z,100485.53
2023-06-12T11:03:21.615Z,100476.06
2023-06-12T11:05:53.139Z,100466.38
2023-06-12T11:08:21.439Z,100461.69
2023-06-12T11:10:48.384Z,100462.69
2023-06-12T11:13:15.460Z,100465.31
2023-06-12T11:15:47.894Z,100465.50
2023-06-12T11:18:16.741Z,100466.00
2023-06-12T11:20:51.435Z,100463.28
2023-06-12T11:23:22.946Z,100442.56
2023-06-12T11:25:51.219Z,100467.22
2023-06-12T11:28:18.341Z,100461.88
2023-06-12T11:31:03.072Z,100466.91
2023-06-12T11:33:37.027Z,100471.31
2023-06-12T11:36:04.705Z,100469.69
2023-06-12T11:41:01.324Z,100459.41
2023-06-12T11:43:29.128Z,100463.59
2023-06-12T11:46:04.551Z,100460.78
2023-06-12T11:51:09.414Z,100455.94
2023-06-12T11:53:36.820Z,100449.66
2023-06-12T11:58:42.681Z,100448.31
2023-06-12T12:01:25.501Z,100452.78
2023-06-12T12:04:01.547Z,100450.13
2023-06-12T12:06:30.123Z,100439.97
2023-06-12T12:08:57.962Z,100436.06
2023-06-12T12:11:31.810Z,100438.22
2023-06-12T12:14:03.521Z,100446.94
2023-06-12T12:16:47.220Z,100433.59
2023-06-12T12:19:27.536Z,100434.53
2023-06-12T12:21:59.478Z,100440.06
2023-06-12T12:24:26.320Z,100426.28
2023-06-12T12:26:56.164Z,100436.69
2023-06-12T12:29:23.732Z,100433.25
2023-06-12T12:31:51.201Z,100425.59
2023-06-12T12:34:18.406Z,100426.28
2023-06-12T12:36:46.571Z,100422.19
2023-06-12T12:39:16.211Z,100422.25
2023-06-12T12:41:42.989Z,100428.09
2023-06-12T12:44:29.426Z,100389.81
2023-06-12T12:46:58.886Z,100419.53
2023-06-12T12:49:25.935Z,100410.31
2023-06-12T12:51:52.554Z,100414.78
2023-06-12T12:54:19.861Z,100424.22
2023-06-12T12:56:50.142Z,100420.03
2023-06-12T12:59:17.168Z,100415.19
2023-06-12T13:01:44.738Z,100418.19
2023-06-12T13:04:12.300Z,100418.06
2023-06-12T13:06:44.770Z,100404.94
2023-06-12T13:09:11.767Z,100378.66
2023-06-12T13:11:38.861Z,100387.44
2023-06-12T13:14:08.521Z,100399.72
2023-06-12T13:16:35.851Z,100385.38
2023-06-12T13:19:03.632Z,100389.78
2023-06-12T13:21:30.883Z,100385.31
2023-06-12T13:23:57.905Z,100383.84
2023-06-12T13:26:25.356Z,100379.59
2023-06-12T13:28:52.329Z,100380.44
2023-06-12T13:31:18.959Z,100376.53
2023-06-12T13:33:45.830Z,100364.28
2023-06-12T13:36:12.396Z,100372.19
2023-06-12T13:38:39.041Z,100376.78
2023-06-12T13:41:07.178Z,100367.00
2023-06-12T13:43:34.509Z,100358.97
2023-06-12T13:46:01.223Z,100377.56
2023-06-12T13:48:28.209Z,100373.22
2023-06-12T13:50:54.879Z,100366.91
2023-06-12T13:53:21.468Z,100357.34
2023-06-12T13:55:50.981Z,100353.44
2023-06-12T13:58:17.775Z,100358.22
2023-06-12T14:00:46.704Z,100366.84
2023-06-12T14:03:13.700Z,100369.53
2023-06-12T14:05:40.506Z,100344.31
2023-06-12T14:08:07.272Z,100360.56
2023-06-12T14:10:38.363Z,100358.13
2023-06-12T14:13:05.297Z,100357.31
2023-06-12T14:15:31.994Z,100352.69
2023-06-12T14:18:03.600Z,100344.81
2023-06-12T14:20:32.768Z,100345.13
2023-06-12T14:23:01.683Z,100339.88
2023-06-12T14:25:29.014Z,100329.16
2023-06-12T14:27:56.012Z,100343.75
2023-06-12T14:30:23.257Z,100340.69
2023-06-12T14:32:49.901Z,100318.28
2023-06-12T14:35:16.908Z,100334.00
2023-06-12T14:37:44.002Z,100337.47
2023-06-12T14:40:14.465Z,100335.91
2023-06-12T14:42:42.178Z,100351.88
2023-06-12T14:45:09.147Z,100334.66
2023-06-12T14:47:36.061Z,100324.63
2023-06-12T14:50:03.031Z,100325.19
2023-06-12T14:52:33.782Z,100337.28
2023-06-12T14:55:02.703Z,100332.00
2023-06-12T14:57:35.205Z,100336.56
2023-06-12T15:00:03.991Z,100294.50
2023-06-12T15:02:32.680Z,100313.53
2023-06-12T15:05:05.132Z,100321.75
2023-06-12T15:07:32.079Z,100335.84
2023-06-12T15:09:58.792Z,100318.16
2023-06-12T15:12:26.365Z,100299.19
2023-06-12T15:14:54.600Z,100315.75
2023-06-12T15:17:21.564Z,100318.78
2023-06-12T15:19:50.655Z,100315.38
2023-06-12T15:22:17.547Z,100311.84
2023-06-12T15:24:44.644Z,100322.44
2023-06-12T15:27:12.581Z,100300.19
2023-06-12T15:29:39.614Z,100315.19
2023-06-12T15:32:08.666Z,100333.50
2023-06-12T15:34:35.919Z,100324.50
2023-06-12T15:37:03.176Z,100322.72
2023-06-12T15:39:30.768Z,100313.75
2023-06-12T15:42:01.685Z,100315.56
2023-06-12T15:44:31.101Z,100318.13
2023-06-12T15:46:58.072Z,100306.59
2023-06-12T15:49:24.941Z,100302.38
2023-06-12T15:51:51.521Z,100311.00
2023-06-12T15:54:18.538Z,100304.66
2023-06-12T15:56:45.583Z,100294.88
2023-06-12T15:59:12.350Z,100296.22
2023-06-12T16:01:39.863Z,100281.16
2023-06-12T16:04:22.305Z,100292.63
2023-06-12T16:06:50.417Z,100295.28
2023-06-12T16:09:17.058Z,100290.28
2023-06-12T16:11:49.094Z,100289.06
2023-06-12T16:14:16.196Z,100272.72
2023-06-12T16:16:43.512Z,100285.78
2023-06-12T16:19:14.223Z,100281.91
2023-06-12T16:21:42.458Z,100284.66
2023-06-12T16:24:13.892Z,100278.00
2023-06-12T16:26:40.726Z,100274.03
2023-06-12T16:29:07.801Z,100280.84
2023-06-12T16:31:43.337Z,100264.38
2023-06-12T16:34:10.094Z,100277.84
2023-06-12T16:36:41.102Z,100251.00
2023-06-12T16:39:09.809Z,100270.44
2023-06-12T16:41:38.060Z,100259.28
2023-06-12T16:44:05.040Z,100245.44
2023-06-12T16:46:35.374Z,100255.59
2023-06-12T16:49:02.058Z,100219.59
2023-06-12T16:51:28.717Z,100273.56
2023-06-12T16:53:55.471Z,100241.97
2023-06-12T16:56:22.266Z,100257.06
2023-06-12T16:58:48.954Z,100254.63
2023-06-12T17:01:16.244Z,100252.91
2023-06-12T17:03:43.175Z,100265.56
2023-06-12T17:06:12.468Z,100262.56
2023-06-12T17:08:40.037Z,100256.38
2023-06-12T17:11:10.420Z,100259.63
2023-06-12T17:13:40.179Z,100259.13
2023-06-12T17:16:08.006Z,100255.91
2023-06-12T17:18:34.702Z,100261.88
2023-06-12T17:21:02.918Z,100254.66
2023-06-12T17:23:30.773Z,100258.13
2023-06-12T17:25:57.599Z,100256.13
2023-06-12T17:28:34.987Z,100262.84
2023-06-12T17:31:02.097Z,100256.13
2023-06-12T17:33:28.948Z,100258.41
2023-06-12T17:35:56.977Z,100261.38
2023-06-12T17:38:24.065Z,100254.19
2023-06-12T17:40:50.795Z,100257.59
2023-06-12T17:43:17.753Z,100250.19
2023-06-12T17:45:46.699Z,100247.94
2023-06-12T17:48:15.412Z,100247.16
2023-06-12T17:50:42.300Z,100236.72
2023-06-12T17:53:10.108Z,100239.66
2023-06-12T17:55:38.264Z,100247.38
2023-06-12T17:58:05.024Z,100232.72
2023-06-12T18:00:32.123Z,100239.88
2023-06-12T18:02:59.398Z,100248.94
2023-06-12T18:05:26.072Z,100245.63
2023-06-12T18:07:52.742Z,100249.81
2023-06-12T18:10:19.674Z,100252.09
2023-06-12T18:12:46.354Z,100237.06
2023-06-12T18:15:20.501Z,100257.28
2023-06-12T18:17:47.683Z,100243.75
2023-06-12T18:20:15.160Z,100248.47
2023-06-12T18:22:41.793Z,100246.63
2023-06-12T18:25:10.208Z,100247.47
2023-06-12T18:27:37.350Z,100229.06
2023-06-12T18:30:04.613Z,100244.59
2023-06-12T18:32:41.044Z,100240.31
2023-06-12T18:35:09.514Z,100247.66
2023-06-12T18:37:39.582Z,100235.63
2023-06-12T18:40:10.464Z,100231.44
2023-06-12T18:42:37.438Z,100242.84
2023-06-12T18:45:04.425Z,100240.53
2023-06-12T18:47:33.413Z,100250.31
2023-06-12T18:50:00.139Z,100237.16
2023-06-12T18:52:26.884Z,100245.09
2023-06-12T18:54:57.733Z,100242.94
2023-06-12T18:57:25.984Z,100239.13
2023-06-12T18:59:53.301Z,100234.22
2023-06-12T19:02:20.196Z,100245.13
2023-06-12T19:04:49.829Z,100247.63
2023-06-12T19:07:21.108Z,100233.81
2023-06-12T19:09:48.354Z,100250.16
2023-06-12T19:12:15.382Z,100251.09
2023-06-12T19:14:43.229Z,100253.50
2023-06-12T19:17:10.668Z,100247.00
2023-06-12T19:19:41.189Z,100247.00
2023-06-12T19:22:08.024Z,100240.50
2023-06-12T19:24:34.689Z,100259.22
2023-06-12T19:27:01.450Z,100252.78
2023-06-12T19:29:28.550Z,100261.03
2023-06-12T19:31:55.418Z,100269.03
2023-06-12T19:34:22.290Z,100268.63
2023-06-12T19:36:48.880Z,100262.06
2023-06-12T19:39:15.398Z,100272.94
2023-06-12T19:41:42.165Z,100283.56
2023-06-12T19:44:08.878Z,100274.38
2023-06-12T19:46:35.635Z,100277.06
2023-06-12T19:49:03.092Z,100278.50
2023-06-12T19:51:29.933Z,100278.41
2023-06-12T19:53:56.705Z,100286.09
2023-06-12T19:56:24.987Z,100276.97
2023-06-12T19:58:51.720Z,100287.75
2023-06-12T20:01:18.367Z,100286.69
2023-06-12T20:03:45.698Z,100287.66
2023-06-12T20:06:12.366Z,100293.22
2023-06-12T20:08:39.022Z,100299.63
2023-06-12T20:11:07.273Z,100293.31
2023-06-12T20:13:34.182Z,100308.34
2023-06-12T20:16:00.999Z,100303.28
2023-06-12T20:18:27.989Z,100297.34
2023-06-12T20:20:54.811Z,100300.63
2023-06-12T20:23:21.690Z,100309.00
2023-06-12T20:25:48.632Z,100316.09
2023-06-12T20:28:19.230Z,100309.69
2023-06-12T20:30:46.115Z,100310.94
2023-06-12T20:33:15.872Z,100309.19
2023-06-12T20:35:44.698Z,100306.00
2023-06-12T20:38:11.933Z,100294.34
2023-06-12T20:40:38.913Z,100306.97
2023-06-12T20:43:07.808Z,100298.94
2023-06-12T20:45:37.967Z,100306.63
2023-06-12T20:48:05.523Z,100309.84
2023-06-12T20:50:32.282Z,100313.44
2023-06-12T20:52:59.106Z,100309.38
2023-06-12T20:55:28.006Z,100309.84
2023-06-12T20:57:54.728Z,100305.44
2023-06-12T21:00:21.858Z,100308.34
2023-06-12T21:02:49.555Z,100308.78
2023-06-12T21:05:18.064Z,100311.34
2023-06-12T21:07:45.240Z,100300.66
2023-06-12T21:10:12.198Z,100306.81
2023-06-12T21:12:39.808Z,100315.41
2023-06-12T21:15:09.529Z,100325.34
2023-06-12T21:17:38.037Z,100314.63
2023-06-12T21:20:08.725Z,100322.03
2023-06-12T21:22:45.924Z,100318.56
2023-06-12T21:25:18.949Z,100322.78
2023-06-12T21:27:47.423Z,100301.63
2023-06-12T21:30:14.556Z,100313.06
2023-06-12T21:32:41.915Z,100321.94
2023-06-12T21:35:09.789Z,100325.09
2023-06-12T21:37:36.471Z,100324.53
2023-06-12T21:40:04.202Z,100328.09
2023-06-12T21:42:32.415Z,100321.81
2023-06-12T21:44:59.639Z,100318.19
2023-06-12T21:47:27.601Z,100319.44
2023-06-12T21:49:54.693Z,100320.31
2023-06-12T21:52:22.906Z,100326.25
2023-06-12T21:54:53.813Z,100325.59
2023-06-12T21:57:20.604Z,100326.84
2023-06-12T21:59:47.526Z,100330.19
2023-06-12T22:02:17.931Z,100306.19
2023-06-12T22:04:44.804Z,100324.72
2023-06-12T22:07:11.450Z,100309.34
2023-06-12T22:09:38.354Z,100316.88
2023-06-12T22:12:06.442Z,100316.13
2023-06-12T22:14:33.941Z,100323.78
2023-06-12T22:17:01.258Z,100328.38
2023-06-12T22:19:28.042Z,100325.00
2023-06-12T22:21:57.619Z,100323.09
2023-06-12T22:24:24.753Z,100320.22
2023-06-12T22:26:51.622Z,100317.50
2023-06-12T22:29:18.927Z,100322.44
2023-06-12T22:31:45.833Z,100330.53
2023-06-12T22:34:12.799Z,100327.84
2023-06-12T22:36:40.451Z,100320.28
2023-06-12T22:39:08.572Z,100320.22
2023-06-12T22:41:36.268Z,100322.34
2023-06-12T22:44:06.634Z,100330.91
2023-06-12T22:46:38.079Z,100327.97
2023-06-12T22:49:04.947Z,100318.56
2023-06-12T22:51:31.666Z,100330.13
2023-06-12T22:53:58.507Z,100324.94
2023-06-12T22:56:25.180Z,100332.47
2023-06-12T22:58:52.342Z,100331.81
2023-06-12T23:01:19.388Z,100330.81
2023-06-12T23:03:47.254Z,100332.97
2023-06-12T23:06:14.904Z,100346.44
2023-06-12T23:08:44.742Z,100344.59
2023-06-12T23:11:11.881Z,100343.19
2023-06-12T23:13:38.711Z,100335.59
2023-06-12T23:16:05.960Z,100335.41
2023-06-12T23:18:34.655Z,100325.81
2023-06-12T23:21:03.331Z,100337.06
2023-06-12T23:23:37.255Z,100336.91
2023-06-12T23:26:04.748Z,100344.22
2023-06-12T23:28:37.433Z,100340.25
2023-06-12T23:31:04.528Z,100340.47
2023-06-12T23:33:31.576Z,100343.59
2023-06-12T23:35:59.099Z,100341.47
2023-06-12T23:38:26.175Z,100351.03
2023-06-12T23:40:53.119Z,100346.06
2023-06-12T23:43:19.940Z,100340.91
2023-06-12T23:45:47.028Z,100351.34
2023-06-12T23:48:16.801Z,100353.31
2023-06-12T23:50:46.533Z,100348.25
2023-06-12T23:53:13.545Z,100351.56
2023-06-12T23:55:40.642Z,100347.69
2023-06-12T23:58:07.767Z,100353.84
